Time;durP1;ratioP1;P1;durP2;ratioP2;P2;SDS_P1;SDS_P2;PMS_P1;PMS_P2;Temp;Humidity;BMP_temperature;BMP_pressure;BME280_temperature;BME280_humidity;BME280_pressure;Samples;Min_cycle;Max_cycle;Signal;HPM_P1;HPM_P2
2024/03/04 00:01:08;;;;;;;11.27;5.45;;;;;;;;;;4967533;28;20033;-75
2024/03/04 00:03:33;;;;;;;10.57;5.47;;;;;;;;;;4968936;28;20041;-75
2024/03/04 00:05:59;;;;;;;10.77;4.70;;;;;;;;;;4970923;28;20030;-75
2024/03/04 00:08:25;;;;;;;10.43;5.28;;;;;;;;;;4974492;28;20114;-75
2024/03/04 00:10:51;;;;;;;9.70;4.60;;;;;;;;;;4957533;28;20027;-75
2024/03/04 00:13:17;;;;;;;9.32;4.65;;;;;;;;;;4971562;28;20030;-75
2024/03/04 00:15:42;;;;;;;7.43;4.28;;;;;;;;;;4969941;28;20627;-75
2024/03/04 00:18:08;;;;;;;9.52;4.78;;;;;;;;;;4971397;28;20065;-75
2024/03/04 00:20:33;;;;;;;7.00;4.32;;;;;;;;;;4958662;28;20433;-74
2024/03/04 00:22:58;;;;;;;10.00;4.35;;;;;;;;;;4974945;28;20084;-76
2024/03/04 00:25:26;;;;;;;9.77;3.47;;;;;;;;;;4973618;28;20042;-75
2024/03/04 00:27:51;;;;;;;9.25;3.65;;;;;;;;;;4971218;28;20037;-75
2024/03/04 00:30:17;;;;;;;9.10;3.83;;;;;;;;;;4969361;28;20035;-75
2024/03/04 00:32:44;;;;;;;9.75;4.30;;;;;;;;;;4955714;28;20374;-76
2024/03/04 00:35:10;;;;;;;6.75;3.40;;;;;;;;;;4973799;28;20031;-75
2024/03/04 00:37:36;;;;;;;7.57;3.47;;;;;;;;;;4969789;28;20096;-75
2024/03/04 00:40:14;;;;;;;10.40;3.78;;;;;;;;;;4956307;28;20026;-76
2024/03/04 00:42:39;;;;;;;9.85;4.00;;;;;;;;;;4972708;28;20026;-78
2024/03/04 00:45:05;;;;;;;9.02;3.55;;;;;;;;;;4974172;28;20032;-76
2024/03/04 00:47:32;;;;;;;7.22;4.07;;;;;;;;;;4972956;28;20022;-75
2024/03/04 00:49:57;;;;;;;11.93;3.72;;;;;;;;;;4955681;28;20121;-76
2024/03/04 00:52:23;;;;;;;8.90;3.90;;;;;;;;;;4966618;28;20569;-76
2024/03/04 00:54:49;;;;;;;8.43;3.38;;;;;;;;;;4973332;28;20033;-75
2024/03/04 00:57:15;;;;;;;7.82;3.13;;;;;;;;;;4971879;28;20023;-76
2024/03/04 00:59:40;;;;;;;9.70;3.95;;;;;;;;;;4974399;28;20043;-75
2024/03/04 01:02:05;;;;;;;6.28;3.47;;;;;;;;;;4973031;28;20026;-76
2024/03/04 01:04:32;;;;;;;6.72;3.30;;;;;;;;;;4969736;28;20026;-75
2024/03/04 01:06:57;;;;;;;8.30;3.38;;;;;;;;;;4972840;28;20037;-76
2024/03/04 01:09:22;;;;;;;7.07;3.20;;;;;;;;;;4973726;28;20399;-76
2024/03/04 01:11:48;;;;;;;8.05;4.03;;;;;;;;;;4975549;28;20066;-75
2024/03/04 01:14:13;;;;;;;6.53;3.60;;;;;;;;;;4971586;28;20030;-75
2024/03/04 01:16:42;;;;;;;8.48;3.30;;;;;;;;;;4973501;28;20035;-76
2024/03/04 01:19:08;;;;;;;8.25;3.60;;;;;;;;;;4958942;28;20038;-76
2024/03/04 01:21:33;;;;;;;7.53;3.45;;;;;;;;;;4972230;28;20034;-76
2024/03/04 01:23:59;;;;;;;9.18;3.63;;;;;;;;;;4971963;28;20074;-76
2024/03/04 01:26:24;;;;;;;9.15;3.83;;;;;;;;;;4970515;28;20492;-76
2024/03/04 01:28:49;;;;;;;8.73;3.60;;;;;;;;;;4966715;28;20163;-76
2024/03/04 01:31:18;;;;;;;8.10;3.38;;;;;;;;;;4954506;28;20118;-75
2024/03/04 01:33:45;;;;;;;5.88;3.35;;;;;;;;;;4970647;28;20089;-75
2024/03/04 01:36:11;;;;;;;7.90;3.63;;;;;;;;;;4958698;28;20019;-75
2024/03/04 01:38:37;;;;;;;9.82;3.40;;;;;;;;;;4971697;28;20046;-76
2024/03/04 01:41:03;;;;;;;6.55;3.45;;;;;;;;;;4957834;28;20034;-76
2024/03/04 01:43:28;;;;;;;8.05;3.78;;;;;;;;;;4976628;28;20042;-75
2024/03/04 01:45:54;;;;;;;6.93;3.60;;;;;;;;;;4973858;28;20019;-75
2024/03/04 01:48:19;;;;;;;9.82;3.22;;;;;;;;;;4977440;28;20398;-75
2024/03/04 01:50:45;;;;;;;8.93;3.88;;;;;;;;;;4958882;28;20416;-75
2024/03/04 01:53:11;;;;;;;7.32;3.33;;;;;;;;;;4974684;28;20058;-75
2024/03/04 01:55:51;;;;;;;6.75;3.50;;;;;;;;;;4971502;28;20033;-75
2024/03/04 01:58:18;;;;;;;7.95;3.55;;;;;;;;;;4974456;28;20454;-75
2024/03/04 02:00:46;;;;;;;6.70;3.20;;;;;;;;;;4975100;28;20033;-75
2024/03/04 02:03:14;;;;;;;7.50;3.50;;;;;;;;;;4959624;28;20126;-75
2024/03/04 02:05:44;;;;;;;7.78;3.38;;;;;;;;;;4975757;28;20032;-75
2024/03/04 02:08:12;;;;;;;5.32;2.95;;;;;;;;;;4959578;28;20047;-75
2024/03/04 02:10:38;;;;;;;7.45;3.13;;;;;;;;;;4977255;28;21714;-75
2024/03/04 02:13:04;;;;;;;8.80;3.30;;;;;;;;;;4955986;28;20040;-75
2024/03/04 02:15:34;;;;;;;7.63;3.10;;;;;;;;;;4957966;28;20111;-75
2024/03/04 02:18:00;;;;;;;8.25;3.42;;;;;;;;;;4955486;28;20049;-77
2024/03/04 02:20:27;;;;;;;4.95;2.63;;;;;;;;;;4972911;28;20031;-77
2024/03/04 02:22:54;;;;;;;6.72;3.10;;;;;;;;;;4955461;28;20034;-74
2024/03/04 02:25:22;;;;;;;7.18;3.55;;;;;;;;;;4958724;28;20105;-77
2024/03/04 02:27:48;;;;;;;12.52;3.45;;;;;;;;;;4967983;28;20485;-77
2024/03/04 02:30:14;;;;;;;8.48;3.25;;;;;;;;;;4972842;28;20037;-77
2024/03/04 02:32:40;;;;;;;6.47;3.70;;;;;;;;;;4958382;28;20399;-74
2024/03/04 02:35:07;;;;;;;7.65;3.83;;;;;;;;;;4971231;28;20780;-77
2024/03/04 02:37:34;;;;;;;7.63;3.60;;;;;;;;;;4975085;28;20038;-76
2024/03/04 02:40:01;;;;;;;8.68;3.70;;;;;;;;;;4975289;28;20030;-75
2024/03/04 02:42:27;;;;;;;8.65;3.97;;;;;;;;;;4956068;28;20397;-75
2024/03/04 02:44:52;;;;;;;6.03;3.33;;;;;;;;;;4955228;28;20486;-77
2024/03/04 02:47:17;;;;;;;7.65;3.55;;;;;;;;;;4956107;28;20082;-77
2024/03/04 02:49:43;;;;;;;7.63;3.90;;;;;;;;;;4968950;28;20071;-77
2024/03/04 02:52:08;;;;;;;7.90;3.78;;;;;;;;;;4955946;28;20039;-77
2024/03/04 02:54:34;;;;;;;10.38;3.97;;;;;;;;;;4957809;28;20081;-78
2024/03/04 02:56:59;;;;;;;7.95;3.85;;;;;;;;;;4975519;28;20026;-76
2024/03/04 02:59:25;;;;;;;11.50;4.32;;;;;;;;;;4955028;28;20050;-76
2024/03/04 03:01:50;;;;;;;9.50;4.13;;;;;;;;;;4957757;28;20030;-76
2024/03/04 03:04:15;;;;;;;8.88;4.38;;;;;;;;;;4955978;28;20101;-76
2024/03/04 03:06:42;;;;;;;7.60;4.30;;;;;;;;;;4958826;28;20162;-76
2024/03/04 03:09:08;;;;;;;10.13;4.63;;;;;;;;;;4976587;28;20073;-76
2024/03/04 03:11:33;;;;;;;9.63;4.68;;;;;;;;;;4972253;28;20041;-76
2024/03/04 03:13:59;;;;;;;9.85;5.32;;;;;;;;;;4968340;28;20074;-76
2024/03/04 03:16:25;;;;;;;9.90;4.28;;;;;;;;;;4973817;28;20042;-76
2024/03/04 03:18:51;;;;;;;7.97;4.32;;;;;;;;;;4955865;28;20023;-76
2024/03/04 03:21:17;;;;;;;8.27;5.05;;;;;;;;;;4975442;28;20079;-77
2024/03/04 03:23:44;;;;;;;7.97;4.13;;;;;;;;;;4972089;28;20570;-76
2024/03/04 03:26:10;;;;;;;9.68;4.50;;;;;;;;;;4973019;28;20109;-76
2024/03/04 03:28:40;;;;;;;9.70;4.25;;;;;;;;;;4969309;28;20040;-76
2024/03/04 03:31:06;;;;;;;9.80;4.70;;;;;;;;;;4967374;28;20031;-76
2024/03/04 03:33:33;;;;;;;8.55;4.18;;;;;;;;;;4972226;28;20034;-76
2024/03/04 03:35:58;;;;;;;8.93;4.20;;;;;;;;;;4952774;28;20026;-76
2024/03/04 03:38:24;;;;;;;8.82;3.65;;;;;;;;;;4971816;28;20030;-76
2024/03/04 03:40:49;;;;;;;7.28;3.63;;;;;;;;;;4973273;28;20469;-76
2024/03/04 03:43:17;;;;;;;6.53;3.83;;;;;;;;;;4971563;28;20465;-77
2024/03/04 03:45:43;;;;;;;7.35;3.50;;;;;;;;;;4969580;28;20034;-76
2024/03/04 03:48:09;;;;;;;8.88;3.45;;;;;;;;;;4973668;28;20367;-76
2024/03/04 03:50:35;;;;;;;7.03;3.22;;;;;;;;;;4956504;28;20587;-76
2024/03/04 03:53:01;;;;;;;8.02;3.65;;;;;;;;;;4955374;28;20125;-76
2024/03/04 03:55:26;;;;;;;6.50;3.05;;;;;;;;;;4951991;28;20031;-76
2024/03/04 03:57:51;;;;;;;6.65;3.10;;;;;;;;;;4971514;28;20121;-76
2024/03/04 04:00:18;;;;;;;6.57;3.10;;;;;;;;;;4972197;28;20038;-76
2024/03/04 04:02:43;;;;;;;5.53;2.90;;;;;;;;;;4971610;28;20018;-76
2024/03/04 04:05:08;;;;;;;7.05;3.00;;;;;;;;;;4971956;28;20373;-76
2024/03/04 04:07:34;;;;;;;5.78;2.80;;;;;;;;;;4973947;28;20034;-76
2024/03/04 04:09:59;;;;;;;5.70;2.38;;;;;;;;;;4974548;28;20488;-76
2024/03/04 04:12:25;;;;;;;5.60;2.20;;;;;;;;;;4954588;28;20035;-76
2024/03/04 04:14:50;;;;;;;5.65;2.35;;;;;;;;;;4956799;28;20037;-76
2024/03/04 04:17:16;;;;;;;6.65;2.05;;;;;;;;;;4972173;28;20510;-76
2024/03/04 04:19:41;;;;;;;5.45;2.15;;;;;;;;;;4954294;28;20038;-77
2024/03/04 04:22:08;;;;;;;6.22;2.20;;;;;;;;;;4953969;28;20568;-76
2024/03/04 04:24:37;;;;;;;4.68;2.08;;;;;;;;;;4954058;28;20018;-76
2024/03/04 04:27:03;;;;;;;5.10;2.03;;;;;;;;;;4954376;28;20085;-76
2024/03/04 04:29:28;;;;;;;7.65;2.80;;;;;;;;;;4970412;28;20035;-76
2024/03/04 04:31:55;;;;;;;5.25;1.88;;;;;;;;;;4975672;28;20221;-76
2024/03/04 04:34:20;;;;;;;3.25;1.77;;;;;;;;;;4958168;28;20031;-76
2024/03/04 04:36:49;;;;;;;4.72;2.00;;;;;;;;;;4952191;28;20097;-76
2024/03/04 04:39:15;;;;;;;6.95;2.70;;;;;;;;;;4955469;28;20031;-77
2024/03/04 04:41:40;;;;;;;4.05;2.03;;;;;;;;;;4970510;28;20037;-76
2024/03/04 04:44:06;;;;;;;5.05;2.20;;;;;;;;;;4969397;28;20528;-78
2024/03/04 04:46:31;;;;;;;3.70;2.00;;;;;;;;;;4949585;28;20030;-76
2024/03/04 04:48:57;;;;;;;3.65;1.67;;;;;;;;;;4966835;28;20708;-76
2024/03/04 04:51:22;;;;;;;5.13;2.00;;;;;;;;;;4954514;28;20433;-76
2024/03/04 04:53:48;;;;;;;4.82;1.90;;;;;;;;;;4971228;28;20042;-76
2024/03/04 04:56:17;;;;;;;4.90;1.88;;;;;;;;;;4956641;28;20027;-76
2024/03/04 04:58:43;;;;;;;5.68;2.10;;;;;;;;;;4956013;28;21389;-76
2024/03/04 05:01:09;;;;;;;4.45;1.95;;;;;;;;;;4967630;28;20145;-76
2024/03/04 05:03:35;;;;;;;7.25;2.00;;;;;;;;;;4968885;28;20129;-77
2024/03/04 05:06:01;;;;;;;4.15;1.50;;;;;;;;;;4971899;28;20072;-77
2024/03/04 05:08:27;;;;;;;4.40;1.90;;;;;;;;;;4953369;28;20264;-76
2024/03/04 05:10:53;;;;;;;4.28;1.85;;;;;;;;;;4953278;28;20026;-77
2024/03/04 05:13:18;;;;;;;4.95;2.00;;;;;;;;;;4969144;28;20428;-75
2024/03/04 05:15:44;;;;;;;4.53;1.80;;;;;;;;;;4969445;28;20062;-76
2024/03/04 05:18:12;;;;;;;3.70;2.00;;;;;;;;;;4967664;28;20034;-76
2024/03/04 05:20:37;;;;;;;5.40;1.90;;;;;;;;;;4970107;28;20056;-75
2024/03/04 05:23:03;;;;;;;4.43;2.15;;;;;;;;;;4954983;28;20038;-76
2024/03/04 05:25:31;;;;;;;4.85;1.90;;;;;;;;;;4950932;28;20027;-75
2024/03/04 05:27:57;;;;;;;6.05;2.20;;;;;;;;;;4965616;28;20058;-75
2024/03/04 05:30:22;;;;;;;4.88;1.80;;;;;;;;;;4972563;28;20058;-75
2024/03/04 05:32:48;;;;;;;4.15;1.88;;;;;;;;;;4955253;28;20023;-75
2024/03/04 05:35:13;;;;;;;3.30;1.45;;;;;;;;;;4967529;28;20050;-75
2024/03/04 05:37:40;;;;;;;5.40;1.80;;;;;;;;;;4969103;28;20038;-75
2024/03/04 05:40:14;;;;;;;5.53;1.98;;;;;;;;;;4970307;28;20027;-75
2024/03/04 05:42:41;;;;;;;4.30;1.50;;;;;;;;;;4953438;28;20046;-76
2024/03/04 05:45:09;;;;;;;5.22;1.60;;;;;;;;;;4968459;28;20046;-76
2024/03/04 05:47:35;;;;;;;5.70;1.40;;;;;;;;;;4969479;28;20022;-76
2024/03/04 05:50:05;;;;;;;3.55;1.30;;;;;;;;;;4969361;28;20031;-76
2024/03/04 05:52:30;;;;;;;6.55;1.60;;;;;;;;;;4966327;28;20063;-76
2024/03/04 05:54:56;;;;;;;4.18;1.38;;;;;;;;;;4950431;28;20676;-76
2024/03/04 05:57:21;;;;;;;4.80;1.35;;;;;;;;;;4970259;28;20033;-76
2024/03/04 05:59:47;;;;;;;2.92;1.30;;;;;;;;;;4969456;28;20388;-76
2024/03/04 06:02:12;;;;;;;3.88;1.27;;;;;;;;;;4970243;28;20035;-76
2024/03/04 06:04:37;;;;;;;4.78;1.48;;;;;;;;;;4970627;28;20400;-76
2024/03/04 06:07:03;;;;;;;3.45;1.30;;;;;;;;;;4961311;28;20027;-76
2024/03/04 06:09:28;;;;;;;3.72;1.20;;;;;;;;;;4944822;28;20093;-76
2024/03/04 06:11:54;;;;;;;4.20;1.40;;;;;;;;;;4961794;28;20046;-76
2024/03/04 06:14:20;;;;;;;4.30;1.40;;;;;;;;;;4954808;28;20022;-76
2024/03/04 06:16:46;;;;;;;3.50;1.50;;;;;;;;;;4948172;28;20023;-75
2024/03/04 06:19:11;;;;;;;5.22;1.83;;;;;;;;;;4969212;28;20040;-76
2024/03/04 06:21:37;;;;;;;5.88;2.00;;;;;;;;;;4952425;28;20050;-76
2024/03/04 06:24:03;;;;;;;4.28;2.15;;;;;;;;;;4968480;28;20404;-77
2024/03/04 06:26:28;;;;;;;4.45;2.03;;;;;;;;;;4964354;28;20390;-77
2024/03/04 06:28:53;;;;;;;5.30;2.42;;;;;;;;;;4958014;28;20298;-77
2024/03/04 06:31:19;;;;;;;5.38;2.30;;;;;;;;;;4968407;28;20211;-77
2024/03/04 06:33:44;;;;;;;5.13;2.20;;;;;;;;;;4967413;28;20046;-77
2024/03/04 06:36:10;;;;;;;6.72;2.30;;;;;;;;;;4966109;28;20434;-77
2024/03/04 06:38:35;;;;;;;4.47;2.25;;;;;;;;;;4963686;28;20035;-77
2024/03/04 06:41:03;;;;;;;7.47;2.65;;;;;;;;;;4948392;28;20027;-77
2024/03/04 06:43:28;;;;;;;3.85;1.83;;;;;;;;;;4961345;28;20255;-77
2024/03/04 06:45:54;;;;;;;4.25;1.85;;;;;;;;;;4969923;28;20117;-77
2024/03/04 06:48:20;;;;;;;4.28;1.95;;;;;;;;;;4975217;28;20026;-77
2024/03/04 06:50:46;;;;;;;5.50;2.25;;;;;;;;;;4971063;28;20030;-77
2024/03/04 06:53:12;;;;;;;4.13;1.70;;;;;;;;;;4949140;28;20023;-77
2024/03/04 06:55:37;;;;;;;3.83;1.83;;;;;;;;;;4966380;28;20026;-77
2024/03/04 06:58:03;;;;;;;4.65;1.83;;;;;;;;;;4967812;28;20023;-77
2024/03/04 07:00:28;;;;;;;3.05;1.83;;;;;;;;;;4961727;28;20229;-77
2024/03/04 07:02:54;;;;;;;3.28;1.67;;;;;;;;;;4963539;28;20069;-78
2024/03/04 07:05:19;;;;;;;4.95;1.60;;;;;;;;;;4949286;28;20031;-78
2024/03/04 07:07:44;;;;;;;2.67;1.42;;;;;;;;;;4958566;28;20069;-78
2024/03/04 07:10:10;;;;;;;3.03;1.40;;;;;;;;;;4965830;28;20715;-78
2024/03/04 07:12:36;;;;;;;3.75;1.30;;;;;;;;;;4971790;28;20027;-78
2024/03/04 07:15:06;;;;;;;3.90;1.48;;;;;;;;;;4953756;28;20030;-78
2024/03/04 07:17:31;;;;;;;5.40;1.40;;;;;;;;;;4947174;28;20123;-78
2024/03/04 07:19:57;;;;;;;3.85;1.30;;;;;;;;;;4968585;28;20831;-78
2024/03/04 07:22:22;;;;;;;2.72;1.10;;;;;;;;;;4973168;28;20532;-78
2024/03/04 07:24:47;;;;;;;2.78;1.20;;;;;;;;;;4970744;28;20121;-78
2024/03/04 07:27:14;;;;;;;3.60;1.10;;;;;;;;;;4968332;28;20394;-78
2024/03/04 07:29:40;;;;;;;3.30;1.20;;;;;;;;;;4955793;28;20061;-78
2024/03/04 07:32:06;;;;;;;8.30;1.10;;;;;;;;;;4962539;28;20027;-77
2024/03/04 07:34:31;;;;;;;4.20;1.63;;;;;;;;;;4971234;28;20085;-76
2024/03/04 07:36:57;;;;;;;4.25;1.00;;;;;;;;;;4950610;28;20023;-76
2024/03/04 07:39:23;;;;;;;5.47;1.00;;;;;;;;;;4953636;28;20092;-76
2024/03/04 07:41:49;;;;;;;6.93;1.90;;;;;;;;;;4957226;28;20437;-76
2024/03/04 07:44:16;;;;;;;4.75;1.30;;;;;;;;;;4965333;28;20034;-77
2024/03/04 07:46:42;;;;;;;4.55;1.35;;;;;;;;;;4953763;28;20023;-76
2024/03/04 07:49:07;;;;;;;5.90;1.50;;;;;;;;;;4938258;28;20603;-76
2024/03/04 07:51:32;;;;;;;3.50;1.13;;;;;;;;;;4963395;28;20031;-76
2024/03/04 07:53:58;;;;;;;3.97;1.20;;;;;;;;;;4966393;28;20555;-76
2024/03/04 07:56:23;;;;;;;6.18;1.27;;;;;;;;;;4966212;28;20027;-76
2024/03/04 07:58:49;;;;;;;3.33;1.13;;;;;;;;;;4964700;28;20023;-75
2024/03/04 08:01:15;;;;;;;5.00;1.20;;;;;;;;;;4964868;28;20386;-76
2024/03/04 08:03:40;;;;;;;5.35;1.05;;;;;;;;;;4966459;28;20030;-76
2024/03/04 08:06:06;;;;;;;4.25;1.15;;;;;;;;;;4955168;28;20025;-76
2024/03/04 08:08:32;;;;;;;3.50;1.25;;;;;;;;;;4956269;28;20409;-76
2024/03/04 08:10:57;;;;;;;1.92;0.95;;;;;;;;;;4972667;28;20033;-76
2024/03/04 08:13:23;;;;;;;4.90;1.48;;;;;;;;;;4957927;28;20027;-76
2024/03/04 08:15:48;;;;;;;3.05;0.80;;;;;;;;;;4963477;28;20489;-77
2024/03/04 08:18:14;;;;;;;2.08;0.80;;;;;;;;;;4969456;28;20117;-76
2024/03/04 08:20:40;;;;;;;3.35;0.80;;;;;;;;;;4975488;28;20444;-76
2024/03/04 08:23:06;;;;;;;4.50;1.50;;;;;;;;;;4966661;28;20031;-76
2024/03/04 08:25:31;;;;;;;6.57;1.90;;;;;;;;;;4967889;28;20374;-76
2024/03/04 08:27:57;;;;;;;4.80;1.67;;;;;;;;;;4970021;28;20484;-77
2024/03/04 08:30:22;;;;;;;4.72;1.45;;;;;;;;;;4968514;28;20026;-76
2024/03/04 08:32:51;;;;;;;7.32;2.17;;;;;;;;;;4964943;28;20388;-76
2024/03/04 08:35:16;;;;;;;5.05;1.92;;;;;;;;;;4961586;28;20481;-77
2024/03/04 08:37:42;;;;;;;4.45;2.00;;;;;;;;;;4979450;28;20118;-76
2024/03/04 08:40:08;;;;;;;5.75;2.55;;;;;;;;;;4956334;28;20101;-76
2024/03/04 08:42:37;;;;;;;6.85;2.58;;;;;;;;;;4971943;28;20031;-77
2024/03/04 08:45:03;;;;;;;5.25;2.33;;;;;;;;;;4973707;28;20094;-76
2024/03/04 08:47:28;;;;;;;6.07;2.50;;;;;;;;;;4953441;28;20386;-76
2024/03/04 08:49:55;;;;;;;3.92;1.70;;;;;;;;;;4972372;28;20437;-76
2024/03/04 08:52:20;;;;;;;4.43;1.65;;;;;;;;;;4975705;28;20551;-76
2024/03/04 08:54:45;;;;;;;4.35;1.70;;;;;;;;;;4971812;28;20117;-76
2024/03/04 08:57:11;;;;;;;7.13;1.98;;;;;;;;;;4973105;28;20397;-76
2024/03/04 08:59:36;;;;;;;4.45;1.40;;;;;;;;;;4971854;28;20481;-76
2024/03/04 09:02:04;;;;;;;5.25;2.30;;;;;;;;;;4973605;28;20026;-76
2024/03/04 09:04:29;;;;;;;4.38;2.10;;;;;;;;;;4960759;28;20082;-76
2024/03/04 09:06:55;;;;;;;5.68;2.10;;;;;;;;;;4943267;28;20493;-76
2024/03/04 09:09:21;;;;;;;7.65;1.58;;;;;;;;;;4968673;28;20393;-76
2024/03/04 09:11:48;;;;;;;4.88;1.77;;;;;;;;;;4958716;28;20039;-77
2024/03/04 09:14:13;;;;;;;4.18;1.92;;;;;;;;;;4967775;28;20030;-76
2024/03/04 09:16:38;;;;;;;7.30;1.70;;;;;;;;;;4962512;28;20030;-77
2024/03/04 09:19:03;;;;;;;3.47;1.30;;;;;;;;;;4950254;28;20031;-76
2024/03/04 09:21:29;;;;;;;5.05;2.40;;;;;;;;;;4973380;28;20035;-76
2024/03/04 09:23:54;;;;;;;4.63;1.85;;;;;;;;;;4972001;28;20030;-77
2024/03/04 09:26:20;;;;;;;5.30;2.20;;;;;;;;;;4962723;28;20123;-76
2024/03/04 09:28:50;;;;;;;4.00;2.20;;;;;;;;;;4966169;28;20587;-76
2024/03/04 09:31:15;;;;;;;3.63;1.70;;;;;;;;;;4971545;28;20026;-77
2024/03/04 09:33:40;;;;;;;4.32;2.40;;;;;;;;;;4949236;28;20500;-76
2024/03/04 09:36:06;;;;;;;5.65;2.03;;;;;;;;;;4949768;28;20031;-76
2024/03/04 09:38:31;;;;;;;4.75;1.80;;;;;;;;;;4966818;28;20038;-77
2024/03/04 09:40:57;;;;;;;3.28;1.90;;;;;;;;;;4967289;28;20397;-76
2024/03/04 09:43:28;;;;;;;7.82;2.35;;;;;;;;;;4965886;28;20040;-77
2024/03/04 09:45:53;;;;;;;5.20;2.70;;;;;;;;;;4963914;28;20038;-76
2024/03/04 09:48:21;;;;;;;3.80;2.03;;;;;;;;;;4956150;28;20105;-76
2024/03/04 09:50:46;;;;;;;5.25;2.10;;;;;;;;;;4970879;28;20085;-76
2024/03/04 09:53:15;;;;;;;3.58;1.92;;;;;;;;;;4973139;28;20030;-78
2024/03/04 09:55:41;;;;;;;4.32;2.00;;;;;;;;;;4966479;28;20079;-78
2024/03/04 09:58:08;;;;;;;4.80;1.70;;;;;;;;;;4964486;28;20035;-77
2024/03/04 10:00:35;;;;;;;4.30;1.70;;;;;;;;;;4976181;28;20023;-78
2024/03/04 10:03:02;;;;;;;3.45;1.50;;;;;;;;;;4968919;28;20023;-78
2024/03/04 10:05:28;;;;;;;3.13;1.50;;;;;;;;;;4975735;28;20109;-78
2024/03/04 10:07:53;;;;;;;4.00;1.42;;;;;;;;;;4969648;28;20046;-78
2024/03/04 10:10:19;;;;;;;3.10;1.40;;;;;;;;;;4972558;28;20034;-78
2024/03/04 10:12:44;;;;;;;3.28;1.38;;;;;;;;;;4975495;28;20125;-78
2024/03/04 10:15:10;;;;;;;3.38;1.60;;;;;;;;;;4975204;28;20034;-78
2024/03/04 10:17:40;;;;;;;3.60;1.83;;;;;;;;;;4969262;28;20069;-78
2024/03/04 10:20:07;;;;;;;3.17;1.42;;;;;;;;;;4961122;28;20054;-78
2024/03/04 10:22:35;;;;;;;4.68;1.50;;;;;;;;;;4977436;28;20113;-77
2024/03/04 10:25:05;;;;;;;2.30;1.30;;;;;;;;;;4975059;28;20580;-78
2024/03/04 10:27:36;;;;;;;3.22;1.58;;;;;;;;;;4975465;28;20023;-78
2024/03/04 10:30:11;;;;;;;4.03;1.70;;;;;;;;;;4957178;28;20121;-78
2024/03/04 10:32:57;;;;;;;3.95;1.50;;;;;;;;;;4966430;28;20030;-78
2024/03/04 10:35:25;;;;;;;4.55;1.50;;;;;;;;;;4956436;28;20041;-78
2024/03/04 10:37:51;;;;;;;2.70;1.50;;;;;;;;;;4959068;28;20094;-78
2024/03/04 10:40:21;;;;;;;3.00;1.40;;;;;;;;;;4963394;28;20469;-78
2024/03/04 10:42:47;;;;;;;2.63;1.33;;;;;;;;;;4970969;28;20485;-78
2024/03/04 10:45:14;;;;;;;5.15;2.15;;;;;;;;;;4970381;28;20039;-78
2024/03/04 10:47:41;;;;;;;3.63;1.40;;;;;;;;;;4952481;28;20018;-78
2024/03/04 10:50:08;;;;;;;5.60;1.65;;;;;;;;;;4967126;28;20035;-78
2024/03/04 10:52:33;;;;;;;3.80;1.30;;;;;;;;;;4962977;28;20035;-78
2024/03/04 10:54:59;;;;;;;3.17;1.85;;;;;;;;;;4974295;28;20101;-78
2024/03/04 10:57:29;;;;;;;3.78;1.30;;;;;;;;;;4959575;28;20480;-78
2024/03/04 10:59:58;;;;;;;3.05;1.45;;;;;;;;;;4971530;28;20547;-78
2024/03/04 11:02:24;;;;;;;2.95;1.23;;;;;;;;;;4975220;28;20105;-78
2024/03/04 11:04:53;;;;;;;2.55;1.27;;;;;;;;;;4969981;28;20033;-77
2024/03/04 11:07:23;;;;;;;2.92;1.50;;;;;;;;;;4957344;28;20109;-77
2024/03/04 11:09:52;;;;;;;4.13;1.50;;;;;;;;;;4969160;28;20147;-76
2024/03/04 11:12:21;;;;;;;2.33;1.27;;;;;;;;;;4974681;28;20030;-76
2024/03/04 11:15:00;;;;;;;1.92;1.38;;;;;;;;;;4973438;28;20030;-76
2024/03/04 11:17:42;;;;;;;2.88;1.42;;;;;;;;;;4962769;28;20054;-77
2024/03/04 11:20:07;;;;;;;2.40;1.27;;;;;;;;;;4965124;28;20031;-76
2024/03/04 11:22:34;;;;;;;2.70;1.67;;;;;;;;;;4961082;28;20026;-76
2024/03/04 11:25:00;;;;;;;4.18;1.58;;;;;;;;;;4955830;28;20027;-76
2024/03/04 11:27:27;;;;;;;3.15;1.60;;;;;;;;;;4976759;28;20503;-76
2024/03/04 11:29:54;;;;;;;3.13;1.60;;;;;;;;;;4971734;28;20030;-76
2024/03/04 11:32:26;;;;;;;3.70;1.90;;;;;;;;;;4970854;28;20121;-76
2024/03/04 11:35:07;;;;;;;3.58;1.63;;;;;;;;;;4975440;28;20026;-76
2024/03/04 11:37:51;;;;;;;3.00;1.50;;;;;;;;;;4975221;28;20084;-76
2024/03/04 11:40:24;;;;;;;4.78;1.83;;;;;;;;;;4981001;28;20022;-76
2024/03/04 11:42:50;;;;;;;5.28;1.60;;;;;;;;;;4974186;28;20026;-77
2024/03/04 11:45:21;;;;;;;4.43;1.80;;;;;;;;;;4956559;28;20066;-77
2024/03/04 11:47:47;;;;;;;3.05;1.60;;;;;;;;;;4970731;28;20026;-75
2024/03/04 11:50:46;;;;;;;3.70;1.90;;;;;;;;;;4958313;28;20023;-75
2024/03/04 11:53:44;;;;;;;4.82;2.00;;;;;;;;;;4977820;28;20499;-77
2024/03/04 11:56:09;;;;;;;2.38;1.58;;;;;;;;;;4940114;28;20035;-75
2024/03/04 11:58:34;;;;;;;2.97;1.50;;;;;;;;;;4968315;28;20026;-75
2024/03/04 12:01:00;;;;;;;3.80;1.70;;;;;;;;;;4956843;28;20080;-74
2024/03/04 12:03:27;;;;;;;4.65;1.92;;;;;;;;;;4937802;28;1145599;-77
2024/03/04 12:05:53;;;;;;;2.78;1.70;;;;;;;;;;4958910;28;20033;-75
2024/03/04 12:08:18;;;;;;;5.18;1.85;;;;;;;;;;4976312;28;20407;-76
2024/03/04 12:10:44;;;;;;;3.05;1.70;;;;;;;;;;4977218;28;20023;-76
2024/03/04 12:13:10;;;;;;;3.90;1.80;;;;;;;;;;4957682;28;20065;-75
2024/03/04 12:15:35;;;;;;;5.32;1.75;;;;;;;;;;4978967;28;20429;-78
2024/03/04 12:18:01;;;;;;;2.70;1.40;;;;;;;;;;4964159;28;20027;-78
2024/03/04 12:20:27;;;;;;;4.38;1.80;;;;;;;;;;4954436;28;20034;-77
2024/03/04 12:22:53;;;;;;;5.45;2.00;;;;;;;;;;4961607;28;20030;-77
2024/03/04 12:25:23;;;;;;;3.75;1.70;;;;;;;;;;4967686;28;20421;-77
2024/03/04 12:27:53;;;;;;;2.92;1.67;;;;;;;;;;4972666;28;20065;-78
2024/03/04 12:30:20;;;;;;;3.35;1.92;;;;;;;;;;4970158;28;20101;-77
2024/03/04 12:32:48;;;;;;;3.55;2.10;;;;;;;;;;4970223;28;20038;-78
2024/03/04 12:35:19;;;;;;;3.55;1.88;;;;;;;;;;4967821;28;20026;-78
2024/03/04 12:37:51;;;;;;;3.35;1.58;;;;;;;;;;4973666;28;20099;-78
2024/03/04 12:40:18;;;;;;;3.47;1.80;;;;;;;;;;4974871;28;20037;-78
2024/03/04 12:42:44;;;;;;;3.28;1.60;;;;;;;;;;4977119;28;20038;-78
2024/03/04 12:45:10;;;;;;;3.58;1.70;;;;;;;;;;4979555;28;20154;-77
2024/03/04 12:47:35;;;;;;;3.92;1.70;;;;;;;;;;4972798;28;20023;-77
2024/03/04 12:50:02;;;;;;;4.07;1.70;;;;;;;;;;4972614;28;20112;-78
2024/03/04 12:52:28;;;;;;;3.67;1.95;;;;;;;;;;4974761;28;20037;-78
2024/03/04 12:54:53;;;;;;;3.22;1.80;;;;;;;;;;4954666;28;20022;-78
2024/03/04 12:57:18;;;;;;;3.08;1.70;;;;;;;;;;4969821;28;20132;-78
2024/03/04 12:59:44;;;;;;;2.03;1.45;;;;;;;;;;4972632;28;20034;-78
2024/03/04 13:02:10;;;;;;;5.03;2.20;;;;;;;;;;4968306;28;20027;-78
2024/03/04 13:04:35;;;;;;;3.17;1.90;;;;;;;;;;4973458;28;20397;-78
2024/03/04 13:07:00;;;;;;;2.97;1.70;;;;;;;;;;4963937;28;20362;-78
2024/03/04 13:09:26;;;;;;;3.30;1.90;;;;;;;;;;4949090;28;20023;-79
2024/03/04 13:11:53;;;;;;;4.63;1.75;;;;;;;;;;4959144;28;20038;-79
2024/03/04 13:14:19;;;;;;;4.30;1.83;;;;;;;;;;4973968;28;20038;-79
2024/03/04 13:16:45;;;;;;;4.10;1.88;;;;;;;;;;4975458;28;20019;-79
2024/03/04 13:19:12;;;;;;;3.95;2.08;;;;;;;;;;4975633;28;20046;-79
2024/03/04 13:21:38;;;;;;;4.65;1.90;;;;;;;;;;4968726;28;20026;-79
2024/03/04 13:24:03;;;;;;;4.43;2.20;;;;;;;;;;4975560;28;20545;-79
2024/03/04 13:26:29;;;;;;;3.35;1.92;;;;;;;;;;4974137;28;20042;-75
2024/03/04 13:28:54;;;;;;;5.55;2.20;;;;;;;;;;4972218;28;20066;-77
2024/03/04 13:31:20;;;;;;;3.92;2.38;;;;;;;;;;4971587;28;20396;-75
2024/03/04 13:33:45;;;;;;;3.47;2.17;;;;;;;;;;4957125;28;20070;-76
2024/03/04 13:36:11;;;;;;;3.38;2.00;;;;;;;;;;4972740;28;20027;-76
2024/03/04 13:38:36;;;;;;;4.50;2.30;;;;;;;;;;4979800;28;20035;-76
2024/03/04 13:41:02;;;;;;;4.68;2.40;;;;;;;;;;4959939;28;20023;-76
2024/03/04 13:43:27;;;;;;;4.75;2.13;;;;;;;;;;4976115;28;20046;-76
2024/03/04 13:45:54;;;;;;;3.53;2.10;;;;;;;;;;4977957;28;20086;-76
2024/03/04 13:48:19;;;;;;;4.60;2.25;;;;;;;;;;4978483;28;20023;-76
2024/03/04 13:50:45;;;;;;;4.00;2.30;;;;;;;;;;4978253;28;20077;-76
2024/03/04 13:53:10;;;;;;;4.50;2.53;;;;;;;;;;4953603;28;20027;-76
2024/03/04 13:55:36;;;;;;;4.40;2.30;;;;;;;;;;4968584;28;20027;-76
2024/03/04 13:58:01;;;;;;;4.20;2.35;;;;;;;;;;4950528;28;20481;-77
2024/03/04 14:00:26;;;;;;;3.47;2.20;;;;;;;;;;4968785;28;20417;-75
2024/03/04 14:02:52;;;;;;;3.30;2.13;;;;;;;;;;4973287;28;20027;-76
2024/03/04 14:05:17;;;;;;;4.57;2.20;;;;;;;;;;4975423;28;20030;-76
2024/03/04 14:07:43;;;;;;;3.95;2.40;;;;;;;;;;4968225;28;20086;-76
2024/03/04 14:10:10;;;;;;;6.32;2.58;;;;;;;;;;4971876;28;20496;-76
2024/03/04 14:12:36;;;;;;;4.93;2.50;;;;;;;;;;4940496;28;20023;-76
2024/03/04 14:15:01;;;;;;;4.18;2.70;;;;;;;;;;4967203;28;20054;-75
2024/03/04 14:17:26;;;;;;;4.47;2.60;;;;;;;;;;4963026;28;20392;-76
2024/03/04 14:19:52;;;;;;;6.15;2.72;;;;;;;;;;4948845;28;20336;-77
2024/03/04 14:22:17;;;;;;;4.95;2.75;;;;;;;;;;4958358;28;20034;-76
2024/03/04 14:24:43;;;;;;;4.50;2.90;;;;;;;;;;4960160;28;20405;-76
2024/03/04 14:27:08;;;;;;;4.40;2.80;;;;;;;;;;4968767;28;20413;-76
2024/03/04 14:29:35;;;;;;;7.00;3.40;;;;;;;;;;4964141;28;20488;-76
2024/03/04 14:32:01;;;;;;;5.40;3.05;;;;;;;;;;4962322;28;20449;-76
2024/03/04 14:34:29;;;;;;;4.57;2.83;;;;;;;;;;4949002;28;20027;-76
2024/03/04 14:36:55;;;;;;;5.93;3.33;;;;;;;;;;4964877;28;20031;-76
2024/03/04 14:39:21;;;;;;;6.07;3.15;;;;;;;;;;4963009;28;20027;-76